createdAt,value
2022-08-17T00:00:44.086Z,64.84
2022-08-17T00:03:15.201Z,62.42
2022-08-17T00:06:04.052Z,56.30
2022-08-17T00:08:38.319Z,55.34
2022-08-17T00:11:09.805Z,56.71
2022-08-17T00:13:42.716Z,57.90
2022-08-17T00:16:15.250Z,58.69
2022-08-17T00:19:01.732Z,59.43
2022-08-17T00:22:31.003Z,60.15
2022-08-17T00:24:20.682Z,61.15
2022-08-17T00:26:48.494Z,64.40
2022-08-17T00:29:19.855Z,63.47
2022-08-17T00:31:49.488Z,58.27
2022-08-17T00:34:17.638Z,56.24
2022-08-17T00:36:45.473Z,56.95
2022-08-17T00:39:13.180Z,58.17
2022-08-17T00:41:42.500Z,59.78
2022-08-17T00:44:12.412Z,60.75
2022-08-17T00:46:42.446Z,61.79
2022-08-17T00:49:12.650Z,65.12
2022-08-17T00:51:40.364Z,62.99
2022-08-17T00:54:23.454Z,57.19
2022-08-17T00:56:56.991Z,56.01
2022-08-17T00:59:33.095Z,56.92
2022-08-17T01:02:02.735Z,58.01
2022-08-17T01:04:33.491Z,59.04
2022-08-17T01:07:02.671Z,60.55
2022-08-17T01:09:31.639Z,61.31
2022-08-17T01:12:00.238Z,64.68
2022-08-17T01:14:27.964Z,62.68
2022-08-17T01:16:56.281Z,57.58
2022-08-17T01:19:28.869Z,56.18
2022-08-17T01:22:11.780Z,57.30
2022-08-17T01:24:43.848Z,58.30
2022-08-17T01:27:13.904Z,59.83
2022-08-17T01:29:45.550Z,60.77
2022-08-17T01:32:13.422Z,64.22
2022-08-17T01:34:43.962Z,62.83
2022-08-17T01:37:27.748Z,57.19
2022-08-17T01:40:01.298Z,55.83
2022-08-17T01:42:54.861Z,56.90
2022-08-17T01:45:30.499Z,58.13
2022-08-17T01:47:58.740Z,59.52
2022-08-17T01:50:31.989Z,61.03
2022-08-17T01:53:04.368Z,64.36
2022-08-17T01:55:38.204Z,62.53
2022-08-17T01:58:09.862Z,56.96
2022-08-17T02:00:59.610Z,55.69
2022-08-17T02:03:29.772Z,56.94
2022-08-17T02:05:58.313Z,58.57
2022-08-17T02:08:36.869Z,59.80
2022-08-17T02:11:12.344Z,61.21
2022-08-17T02:13:40.517Z,64.71
2022-08-17T02:16:08.225Z,62.07
2022-08-17T02:18:36.143Z,56.42
2022-08-17T02:21:03.991Z,55.38
2022-08-17T02:23:35.601Z,56.38
2022-08-17T02:26:03.643Z,57.74
2022-08-17T02:28:31.904Z,59.05
2022-08-17T02:31:06.183Z,60.56
2022-08-17T02:33:42.730Z,63.73
2022-08-17T02:36:13.194Z,62.73
2022-08-17T02:38:42.332Z,56.42
2022-08-17T02:41:10.403Z,54.76
2022-08-17T02:43:38.153Z,56.01
2022-08-17T02:46:05.958Z,57.40
2022-08-17T02:48:33.617Z,58.93
2022-08-17T02:51:01.749Z,60.12
2022-08-17T02:53:35.888Z,61.54
2022-08-17T02:56:04.587Z,65.07
2022-08-17T02:58:34.930Z,62.88
2022-08-17T03:01:05.842Z,57.41
2022-08-17T03:03:34.798Z,55.49
2022-08-17T03:06:03.308Z,56.54
2022-08-17T03:08:31.682Z,57.94
2022-08-17T03:10:59.676Z,59.40
2022-08-17T03:13:27.638Z,60.67
2022-08-17T03:15:55.642Z,64.24
2022-08-17T03:18:25.684Z,62.78
2022-08-17T03:20:56.255Z,56.91
2022-08-17T03:23:25.575Z,55.81
2022-08-17T03:25:54.529Z,57.12
2022-08-17T03:28:23.695Z,58.47
2022-08-17T03:30:52.230Z,59.93
2022-08-17T03:33:19.985Z,61.06
2022-08-17T03:35:48.096Z,64.16
2022-08-17T03:38:17.503Z,62.76
2022-08-17T03:40:56.290Z,57.34
2022-08-17T03:43:29.086Z,56.39
2022-08-17T03:46:34.722Z,57.71
2022-08-17T03:49:26.792Z,59.27
2022-08-17T03:52:14.652Z,61.21
2022-08-17T03:55:19.242Z,64.92
2022-08-17T03:57:47.121Z,61.40
2022-08-17T04:00:15.688Z,55.94
2022-08-17T04:02:43.602Z,55.15
2022-08-17T04:05:11.292Z,56.52
2022-08-17T04:07:38.978Z,58.00
2022-08-17T04:10:07.807Z,59.37
2022-08-17T04:13:05.011Z,60.72
2022-08-17T04:15:33.767Z,64.66
2022-08-17T04:18:01.616Z,61.44
2022-08-17T04:20:29.542Z,55.51
2022-08-17T04:23:06.643Z,54.52
2022-08-17T04:25:36.944Z,55.95
2022-08-17T04:28:12.527Z,57.45
2022-08-17T04:30:45.680Z,58.59
2022-08-17T04:33:19.433Z,59.93
2022-08-17T04:35:50.448Z,61.13
2022-08-17T04:38:21.560Z,64.84
2022-08-17T04:41:08.841Z,62.31
2022-08-17T04:43:38.945Z,56.75
2022-08-17T04:46:12.613Z,55.63
2022-08-17T04:48:49.117Z,56.83
2022-08-17T04:51:24.703Z,57.87
2022-08-17T04:53:55.970Z,59.50
2022-08-17T04:56:25.972Z,60.52
2022-08-17T04:58:57.139Z,61.23
2022-08-17T05:01:26.361Z,64.28
2022-08-17T05:03:56.542Z,62.37
2022-08-17T05:06:24.952Z,56.58
2022-08-17T05:08:53.692Z,55.18
2022-08-17T05:11:22.641Z,56.34
2022-08-17T05:13:50.499Z,57.93
2022-08-17T05:16:20.383Z,59.32
2022-08-17T05:18:48.074Z,60.08
2022-08-17T05:21:16.737Z,60.87
2022-08-17T05:23:45.493Z,63.61
2022-08-17T05:26:25.897Z,62.25
2022-08-17T05:28:56.591Z,56.53
2022-08-17T05:31:26.675Z,54.75
2022-08-17T05:33:54.451Z,55.28
2022-08-17T05:36:37.966Z,56.29
2022-08-17T05:39:14.376Z,57.25
2022-08-17T05:41:48.381Z,58.59
2022-08-17T05:44:17.178Z,59.25
2022-08-17T05:46:50.167Z,59.97
2022-08-17T05:49:25.266Z,60.76
2022-08-17T05:52:03.477Z,61.22
2022-08-17T05:54:44.877Z,63.78
2022-08-17T05:57:53.012Z,61.71
2022-08-17T06:00:45.776Z,55.60
2022-08-17T06:03:33.212Z,54.89
2022-08-17T06:06:36.068Z,55.61
2022-08-17T06:09:36.074Z,56.55
2022-08-17T06:12:30.265Z,57.68
2022-08-17T06:15:24.956Z,58.33
2022-08-17T06:17:58.819Z,59.67
2022-08-17T06:20:32.678Z,60.66
2022-08-17T06:23:08.454Z,61.17
2022-08-17T06:25:49.692Z,63.85
2022-08-17T06:28:30.291Z,62.00
2022-08-17T06:31:07.060Z,56.47
2022-08-17T06:33:40.007Z,55.08
2022-08-17T06:36:32.255Z,55.51
2022-08-17T06:39:05.343Z,56.40
2022-08-17T06:41:37.993Z,57.27
2022-08-17T06:44:50.135Z,58.39
2022-08-17T06:47:51.804Z,58.65
2022-08-17T06:50:40.114Z,59.77
2022-08-17T06:53:35.170Z,60.20
2022-08-17T06:56:08.868Z,60.65
2022-08-17T06:58:40.402Z,61.14
2022-08-17T07:01:17.963Z,61.26
2022-08-17T07:04:13.773Z,61.76
2022-08-17T07:06:52.888Z,61.73
2022-08-17T07:09:40.804Z,64.44
2022-08-17T07:12:16.300Z,61.47
2022-08-17T07:14:59.812Z,56.15
2022-08-17T07:17:57.735Z,53.04
2022-08-17T07:20:20.641Z,53.83
2022-08-17T07:23:17.558Z,53.58
2022-08-17T07:25:45.198Z,53.07
2022-08-17T07:28:13.111Z,51.71
2022-08-17T07:31:01.108Z,51.46
2022-08-17T07:33:31.037Z,49.88
2022-08-17T07:35:59.447Z,48.03
2022-08-17T07:38:30.872Z,47.72
2022-08-17T07:41:04.903Z,47.59
2022-08-17T07:43:45.739Z,46.42
2022-08-17T07:46:35.467Z,46.17
2022-08-17T07:49:09.275Z,46.62
2022-08-17T07:51:52.904Z,48.14
2022-08-17T07:54:23.932Z,48.61
2022-08-17T07:56:56.434Z,48.17
2022-08-17T07:59:26.366Z,49.50
2022-08-17T08:01:58.183Z,49.74
2022-08-17T08:05:00.577Z,49.86
2022-08-17T08:07:34.817Z,50.12
2022-08-17T08:10:27.642Z,50.38
2022-08-17T08:13:15.266Z,50.59
2022-08-17T08:15:53.719Z,50.96
2022-08-17T08:18:53.803Z,51.27
2022-08-17T08:22:10.764Z,52.08
2022-08-17T08:24:51.469Z,51.82
2022-08-17T08:28:03.497Z,52.11
2022-08-17T08:30:38.670Z,51.88
2022-08-17T08:33:38.642Z,52.17
2022-08-17T08:37:12.551Z,52.22
2022-08-17T08:39:42.232Z,52.58
2022-08-17T08:42:37.766Z,52.25
2022-08-17T08:45:24.818Z,51.71
2022-08-17T08:48:53.786Z,52.11
2022-08-17T08:51:55.682Z,51.37
2022-08-17T08:54:39.093Z,51.51
2022-08-17T08:57:26.840Z,51.49
2022-08-17T09:00:07.031Z,51.45
2022-08-17T09:02:56.308Z,50.91
2022-08-17T09:05:45.572Z,50.79
2022-08-17T09:08:29.675Z,51.20
2022-08-17T09:12:02.140Z,51.19
2022-08-17T09:14:46.824Z,50.52
2022-08-17T09:17:21.248Z,49.17
2022-08-17T09:19:54.849Z,48.24
2022-08-17T09:22:30.522Z,48.12
2022-08-17T09:25:12.178Z,47.72
2022-08-17T09:27:46.427Z,47.06
2022-08-17T09:30:15.068Z,47.47
2022-08-17T09:32:52.156Z,46.93
2022-08-17T09:35:32.891Z,47.38
2022-08-17T09:38:19.774Z,46.90
2022-08-17T09:41:15.556Z,46.18
2022-08-17T09:44:02.570Z,46.49
2022-08-17T09:46:43.632Z,46.36
2022-08-17T09:49:31.392Z,46.46
2022-08-17T09:52:19.699Z,46.71
2022-08-17T09:54:51.023Z,45.51
2022-08-17T09:57:53.259Z,46.15
2022-08-17T10:00:33.241Z,45.55
2022-08-17T10:03:34.394Z,45.34
2022-08-17T10:06:13.343Z,44.81
2022-08-17T10:09:06.534Z,44.68
2022-08-17T10:12:25.179Z,44.76
2022-08-17T10:15:22.585Z,44.45
2022-08-17T10:18:08.915Z,44.79
2022-08-17T10:20:45.665Z,44.61
2022-08-17T10:23:42.461Z,44.69
2022-08-17T10:26:20.174Z,44.19
2022-08-17T10:29:06.753Z,44.69
2022-08-17T10:31:51.827Z,44.78
2022-08-17T10:35:00.003Z,44.83
2022-08-17T10:37:59.929Z,44.98
2022-08-17T10:40:34.041Z,45.58
2022-08-17T10:43:42.181Z,44.90
2022-08-17T10:46:43.948Z,45.00
2022-08-17T10:49:17.383Z,44.72
2022-08-17T10:51:48.656Z,45.04
2022-08-17T10:54:25.436Z,44.83
2022-08-17T10:56:55.369Z,44.51
2022-08-17T10:59:35.411Z,45.05
2022-08-17T11:02:23.276Z,45.10
2022-08-17T11:05:07.815Z,44.84
2022-08-17T11:07:35.420Z,44.33
2022-08-17T11:10:37.955Z,44.34
2022-08-17T11:13:29.955Z,44.08
2022-08-17T11:16:09.965Z,43.37
2022-08-17T11:18:59.190Z,43.57
2022-08-17T11:21:59.083Z,43.03
2022-08-17T11:24:40.042Z,43.21
2022-08-17T11:27:13.867Z,42.28
2022-08-17T11:29:56.752Z,42.32
2022-08-17T11:32:54.460Z,41.71
2022-08-17T11:35:22.546Z,41.42
2022-08-17T11:38:16.625Z,40.61
2022-08-17T11:40:50.409Z,40.98
2022-08-17T11:43:45.684Z,40.78
2022-08-17T11:46:24.284Z,40.58
2022-08-17T11:49:38.659Z,40.05
2022-08-17T11:52:33.565Z,41.18
2022-08-17T11:55:17.976Z,40.86
2022-08-17T11:58:00.969Z,39.76
2022-08-17T12:00:47.345Z,39.73
2022-08-17T12:03:43.267Z,39.51
2022-08-17T12:06:41.385Z,39.67
2022-08-17T12:09:21.086Z,40.85
2022-08-17T12:12:19.597Z,41.23
2022-08-17T12:15:11.407Z,41.49
2022-08-17T12:17:42.998Z,41.42
2022-08-17T12:20:32.366Z,40.93
2022-08-17T12:23:21.184Z,40.99
2022-08-17T12:25:59.759Z,40.90
2022-08-17T12:28:33.841Z,40.56
2022-08-17T12:31:05.847Z,39.94
2022-08-17T12:33:37.161Z,39.74
2022-08-17T12:36:08.743Z,39.92
2022-08-17T12:38:38.322Z,39.52
2022-08-17T12:41:28.618Z,40.38
2022-08-17T12:44:13.410Z,40.68
2022-08-17T12:46:56.253Z,40.89
2022-08-17T12:49:32.870Z,40.57
2022-08-17T12:52:14.364Z,40.70
2022-08-17T12:54:56.206Z,39.70
2022-08-17T12:57:33.221Z,39.74
2022-08-17T13:00:08.351Z,39.50
2022-08-17T13:02:57.908Z,39.90
2022-08-17T13:05:31.459Z,39.60
2022-08-17T13:08:00.074Z,39.80
2022-08-17T13:10:33.113Z,39.36
2022-08-17T13:13:19.534Z,38.99
2022-08-17T13:15:59.633Z,39.00
2022-08-17T13:18:36.260Z,39.29
2022-08-17T13:21:05.524Z,38.71
2022-08-17T13:23:33.402Z,38.74
2022-08-17T13:26:16.029Z,38.78
2022-08-17T13:28:50.161Z,39.17
2022-08-17T13:31:30.232Z,39.36
2022-08-17T13:34:29.404Z,39.25
2022-08-17T13:37:18.939Z,39.48
2022-08-17T13:39:49.588Z,38.91
2022-08-17T13:42:53.028Z,39.48
2022-08-17T13:45:50.864Z,39.85
2022-08-17T13:48:32.797Z,39.78
2022-08-17T13:51:00.535Z,39.54
2022-08-17T13:53:37.477Z,39.75
2022-08-17T13:56:33.185Z,39.93
2022-08-17T13:59:11.296Z,39.84
2022-08-17T14:01:52.568Z,40.09
2022-08-17T14:04:25.272Z,39.92
2022-08-17T14:07:15.487Z,39.89
2022-08-17T14:09:54.707Z,39.92
2022-08-17T14:12:25.155Z,39.31
2022-08-17T14:14:55.469Z,39.09
2022-08-17T14:17:24.679Z,38.73
2022-08-17T14:19:52.703Z,37.38
2022-08-17T14:22:28.533Z,37.98
2022-08-17T14:24:59.588Z,37.77
2022-08-17T14:27:28.302Z,37.92
2022-08-17T14:29:56.492Z,37.85
2022-08-17T14:32:28.430Z,37.53
2022-08-17T14:34:57.816Z,37.42
2022-08-17T14:37:28.187Z,37.41
2022-08-17T14:39:58.670Z,37.45
2022-08-17T14:42:29.730Z,37.47
2022-08-17T14:45:06.048Z,37.15
2022-08-17T14:47:35.861Z,37.37
2022-08-17T14:50:06.373Z,37.45
2022-08-17T14:52:36.882Z,37.10
2022-08-17T14:55:06.626Z,36.82
2022-08-17T14:57:34.644Z,36.91
2022-08-17T15:00:04.304Z,37.00
2022-08-17T15:02:43.753Z,37.24
2022-08-17T15:05:13.462Z,37.20
2022-08-17T15:07:41.134Z,37.26
2022-08-17T15:10:09.118Z,37.49
2022-08-17T15:12:36.912Z,37.50
2022-08-17T15:15:06.291Z,37.41
2022-08-17T15:17:45.126Z,37.52
2022-08-17T15:20:17.899Z,37.45
2022-08-17T15:22:49.928Z,37.70
2022-08-17T15:25:19.247Z,37.69
2022-08-17T15:27:47.704Z,37.68
2022-08-17T15:30:16.656Z,37.86
2022-08-17T15:32:50.761Z,38.01
2022-08-17T15:35:27.442Z,37.93
2022-08-17T15:38:11.144Z,38.17
2022-08-17T15:40:43.661Z,37.93
2022-08-17T15:43:23.280Z,37.90
2022-08-17T15:46:02.538Z,38.14
2022-08-17T15:48:42.357Z,37.87
2022-08-17T15:51:12.048Z,38.14
2022-08-17T15:53:42.297Z,38.00
2022-08-17T15:56:11.460Z,37.90
2022-08-17T15:58:41.907Z,37.91
2022-08-17T16:01:16.983Z,37.57
2022-08-17T16:04:04.262Z,37.80
2022-08-17T16:06:35.302Z,37.46
2022-08-17T16:09:03.033Z,37.28
2022-08-17T16:11:30.721Z,37.10
2022-08-17T16:13:58.366Z,37.20
2022-08-17T16:16:29.048Z,37.33
2022-08-17T16:18:58.660Z,37.48
2022-08-17T16:21:27.536Z,37.73
2022-08-17T16:24:06.857Z,37.66
2022-08-17T16:26:41.216Z,37.72
2022-08-17T16:29:09.353Z,37.65
2022-08-17T16:31:37.850Z,37.63
2022-08-17T16:34:17.069Z,37.74
2022-08-17T16:36:51.709Z,37.74
2022-08-17T16:39:29.263Z,37.69
2022-08-17T16:41:57.595Z,37.77
2022-08-17T16:44:29.056Z,38.03
2022-08-17T16:46:57.532Z,38.19
2022-08-17T16:49:36.762Z,38.13
2022-08-17T16:52:10.638Z,38.57
2022-08-17T16:54:43.836Z,38.08
2022-08-17T16:57:13.092Z,38.25
2022-08-17T16:59:43.933Z,38.35
2022-08-17T17:02:23.692Z,38.30
2022-08-17T17:05:14.553Z,38.28
2022-08-17T17:08:04.044Z,38.72
2022-08-17T17:10:48.393Z,38.82
2022-08-17T17:13:41.322Z,38.51
2022-08-17T17:16:26.394Z,38.70
2022-08-17T17:19:27.887Z,39.19
2022-08-17T17:22:20.327Z,39.13
2022-08-17T17:25:12.374Z,39.16
2022-08-17T17:27:55.794Z,39.07
2022-08-17T17:30:53.175Z,38.99
2022-08-17T17:33:29.110Z,39.31
2022-08-17T17:36:06.980Z,39.71
2022-08-17T17:38:43.099Z,40.08
2022-08-17T17:41:25.369Z,40.04
2022-08-17T17:44:17.890Z,40.27
2022-08-17T17:46:55.287Z,40.37
2022-08-17T17:49:24.772Z,40.80
2022-08-17T17:52:09.938Z,42.09
2022-08-17T17:55:03.038Z,42.61
2022-08-17T17:57:46.961Z,43.06
2022-08-17T18:00:23.738Z,43.47
2022-08-17T18:03:03.677Z,44.30
2022-08-17T18:05:37.437Z,44.58
2022-08-17T18:08:37.822Z,45.52
2022-08-17T18:11:35.400Z,46.21
2022-08-17T18:14:23.575Z,47.19
2022-08-17T18:16:57.741Z,47.57
2022-08-17T18:19:28.085Z,48.15
2022-08-17T18:22:14.474Z,48.86
2022-08-17T18:24:45.222Z,48.72
2022-08-17T18:27:34.637Z,49.18
2022-08-17T18:30:14.489Z,49.37
2022-08-17T18:32:46.437Z,49.97
2022-08-17T18:35:14.383Z,50.24
2022-08-17T18:37:51.647Z,50.34
2022-08-17T18:40:19.731Z,49.68
2022-08-17T18:42:50.330Z,49.36
2022-08-17T18:45:38.676Z,49.32
2022-08-17T18:48:19.690Z,49.39
2022-08-17T18:50:48.258Z,49.65
2022-08-17T18:53:34.766Z,50.09
2022-08-17T18:56:30.558Z,50.59
2022-08-17T18:59:16.907Z,50.83
2022-08-17T19:02:03.229Z,51.44
2022-08-17T19:04:36.891Z,52.09
2022-08-17T19:07:26.677Z,52.57
2022-08-17T19:10:06.940Z,52.36
2022-08-17T19:12:43.128Z,52.49
2022-08-17T19:15:13.851Z,53.15
2022-08-17T19:17:53.007Z,53.92
2022-08-17T19:20:37.970Z,54.47
2022-08-17T19:23:15.501Z,54.63
2022-08-17T19:25:49.284Z,54.49
2022-08-17T19:28:27.320Z,54.81
2022-08-17T19:31:16.616Z,55.58
2022-08-17T19:33:47.830Z,55.55
2022-08-17T19:36:21.973Z,55.04
2022-08-17T19:39:38.347Z,55.36
2022-08-17T19:42:28.434Z,55.80
2022-08-17T19:45:15.863Z,56.36
2022-08-17T19:47:55.348Z,55.88
2022-08-17T19:50:47.333Z,55.75
2022-08-17T19:53:19.712Z,55.94
2022-08-17T19:56:04.529Z,56.16
2022-08-17T19:59:03.803Z,56.26
2022-08-17T20:01:44.896Z,56.44
2022-08-17T20:04:32.311Z,57.13
2022-08-17T20:07:06.261Z,58.14
2022-08-17T20:09:40.152Z,57.84
2022-08-17T20:12:14.284Z,57.52
2022-08-17T20:14:53.267Z,57.47
2022-08-17T20:17:39.495Z,57.64
2022-08-17T20:20:49.438Z,57.90
2022-08-17T20:23:48.904Z,57.73
2022-08-17T20:26:26.968Z,57.77
2022-08-17T20:29:09.001Z,57.77
2022-08-17T20:31:47.388Z,57.61
2022-08-17T20:34:30.966Z,57.69
2022-08-17T20:37:09.709Z,57.89
2022-08-17T20:39:44.536Z,58.75
2022-08-17T20:42:21.160Z,59.11
2022-08-17T20:45:03.074Z,58.99
2022-08-17T20:48:01.167Z,59.90
2022-08-17T20:51:11.805Z,60.18
2022-08-17T20:53:49.276Z,60.05
2022-08-17T20:56:45.198Z,59.67
2022-08-17T20:59:30.363Z,59.58
2022-08-17T21:02:17.630Z,59.84
2022-08-17T21:04:56.338Z,59.51
2022-08-17T21:07:32.979Z,60.03
2022-08-17T21:10:26.212Z,60.73
2022-08-17T21:13:01.048Z,61.11
2022-08-17T21:15:53.530Z,61.37
2022-08-17T21:19:16.984Z,61.60
2022-08-17T21:21:50.333Z,61.27
2022-08-17T21:24:55.249Z,60.88
2022-08-17T21:27:48.743Z,60.08
2022-08-17T21:30:33.555Z,59.60
2022-08-17T21:33:18.689Z,59.18
2022-08-17T21:35:59.935Z,59.21
2022-08-17T21:38:35.900Z,59.19
2022-08-17T21:41:04.285Z,60.02
2022-08-17T21:43:36.497Z,59.81
2022-08-17T21:46:20.808Z,59.40
2022-08-17T21:48:54.391Z,59.25
2022-08-17T21:51:30.201Z,58.97
2022-08-17T21:54:01.576Z,58.99
2022-08-17T21:56:35.514Z,59.09
2022-08-17T21:59:07.853Z,59.15
2022-08-17T22:01:40.969Z,59.12
2022-08-17T22:04:11.631Z,59.36
2022-08-17T22:06:43.181Z,59.48
2022-08-17T22:09:41.371Z,59.76
2022-08-17T22:12:12.874Z,60.29
2022-08-17T22:14:57.060Z,60.63
2022-08-17T22:17:28.858Z,59.95
2022-08-17T22:19:59.755Z,60.13
2022-08-17T22:22:56.113Z,60.29
2022-08-17T22:25:27.114Z,60.44
2022-08-17T22:28:01.119Z,60.70
2022-08-17T22:30:31.407Z,60.91
2022-08-17T22:33:01.399Z,61.61
2022-08-17T22:35:29.002Z,64.98
2022-08-17T22:37:57.341Z,61.83
2022-08-17T22:40:31.929Z,55.19
2022-08-17T22:43:03.562Z,53.81
2022-08-17T22:45:33.529Z,54.04
2022-08-17T22:48:02.245Z,54.17
2022-08-17T22:50:33.257Z,55.27
2022-08-17T22:53:31.793Z,55.83
2022-08-17T22:56:18.140Z,56.18
2022-08-17T22:59:11.983Z,56.99
2022-08-17T23:01:41.811Z,57.90
2022-08-17T23:04:13.023Z,58.63
2022-08-17T23:06:44.233Z,59.03
2022-08-17T23:09:11.908Z,59.29
2022-08-17T23:11:49.964Z,59.38
2022-08-17T23:14:20.284Z,59.11
2022-08-17T23:16:50.324Z,59.26
2022-08-17T23:19:21.501Z,59.40
2022-08-17T23:21:52.541Z,59.74
2022-08-17T23:24:25.901Z,60.22
2022-08-17T23:26:57.314Z,60.70
2022-08-17T23:29:29.696Z,61.09
2022-08-17T23:31:59.931Z,61.20
2022-08-17T23:34:28.782Z,61.57
2022-08-17T23:36:56.595Z,61.99
2022-08-17T23:39:28.020Z,64.80
2022-08-17T23:42:01.536Z,62.98
2022-08-17T23:44:31.055Z,56.65
2022-08-17T23:46:58.742Z,55.15
2022-08-17T23:49:26.719Z,55.77
2022-08-17T23:51:55.239Z,56.64
2022-08-17T23:54:43.803Z,57.07
2022-08-17T23:57:14.674Z,57.93
2022-08-17T23:59:44.110Z,58.52
